createdAt,value
2023-05-14T00:01:10.115Z,25.11
2023-05-14T00:03:12.140Z,25.11
2023-05-14T00:05:13.732Z,25.11
2023-05-14T00:07:15.163Z,25.11
2023-05-14T00:09:16.718Z,25.12
2023-05-14T00:11:18.200Z,25.13
2023-05-14T00:13:19.719Z,25.13
2023-05-14T00:15:21.406Z,25.14
2023-05-14T00:17:22.900Z,25.14
2023-05-14T00:19:24.515Z,25.14
2023-05-14T00:21:26.358Z,25.14
2023-05-14T00:23:27.803Z,25.14
2023-05-14T00:25:29.421Z,25.13
2023-05-14T00:27:30.883Z,25.14
2023-05-14T00:29:32.512Z,25.15
2023-05-14T00:31:34.010Z,25.14
2023-05-14T00:33:35.620Z,25.15
2023-05-14T00:35:37.356Z,25.16
2023-05-14T00:37:39.046Z,25.16
2023-05-14T00:39:40.560Z,25.17
2023-05-14T00:41:42.028Z,25.16
2023-05-14T00:43:43.519Z,25.19
2023-05-14T00:45:45.111Z,25.16
2023-05-14T00:47:47.360Z,25.17
2023-05-14T00:49:49.061Z,25.16
2023-05-14T00:51:50.774Z,25.16
2023-05-14T00:53:53.304Z,25.17
2023-05-14T00:55:54.816Z,25.18
2023-05-14T00:57:57.964Z,25.17
2023-05-14T00:59:59.516Z,25.17
2023-05-14T01:02:01.085Z,25.19
2023-05-14T01:04:02.943Z,25.19
2023-05-14T01:06:07.377Z,25.19
2023-05-14T01:08:15.863Z,25.20
2023-05-14T01:10:33.081Z,25.19
2023-05-14T01:12:40.251Z,25.19
2023-05-14T01:15:01.865Z,25.18
2023-05-14T01:17:04.694Z,25.18
2023-05-14T01:19:10.410Z,25.19
2023-05-14T01:21:30.344Z,25.19
2023-05-14T01:23:31.818Z,25.20
2023-05-14T01:25:33.773Z,25.19
2023-05-14T01:27:38.538Z,25.19
2023-05-14T01:29:42.164Z,25.20
2023-05-14T01:31:45.513Z,25.21
2023-05-14T01:33:48.443Z,25.22
2023-05-14T01:35:50.858Z,25.22
2023-05-14T01:37:54.616Z,25.22
2023-05-14T01:39:56.497Z,25.20
2023-05-14T01:41:58.939Z,25.19
2023-05-14T01:44:00.452Z,25.19
2023-05-14T01:46:02.351Z,25.20
2023-05-14T01:48:06.582Z,25.21
2023-05-14T01:50:08.213Z,25.22
2023-05-14T01:52:09.725Z,25.22
2023-05-14T01:54:11.145Z,25.20
2023-05-14T01:56:12.660Z,25.22
2023-05-14T01:58:14.071Z,25.21
2023-05-14T02:00:15.848Z,25.21
2023-05-14T02:02:17.519Z,25.20
2023-05-14T02:04:20.719Z,25.20
2023-05-14T02:06:22.174Z,25.18
2023-05-14T02:08:23.716Z,25.07
2023-05-14T02:10:25.506Z,25.18
2023-05-14T02:12:27.176Z,25.17
2023-05-14T02:14:28.788Z,25.18
2023-05-14T02:16:30.347Z,25.18
2023-05-14T02:18:31.964Z,25.19
2023-05-14T02:20:33.586Z,25.19
2023-05-14T02:22:35.069Z,25.17
2023-05-14T02:24:36.489Z,25.18
2023-05-14T02:26:37.976Z,25.17
2023-05-14T02:28:39.423Z,25.17
2023-05-14T02:30:41.005Z,25.17
2023-05-14T02:32:42.622Z,25.16
2023-05-14T02:34:44.184Z,25.17
2023-05-14T02:36:45.656Z,25.17
2023-05-14T02:38:47.089Z,25.17
2023-05-14T02:40:48.760Z,25.18
2023-05-14T02:42:50.233Z,25.17
2023-05-14T02:44:52.270Z,25.18
2023-05-14T02:46:53.744Z,25.18
2023-05-14T02:48:55.233Z,25.19
2023-05-14T02:50:56.854Z,25.17
2023-05-14T02:52:58.262Z,25.18
2023-05-14T02:54:59.794Z,25.17
2023-05-14T02:57:01.221Z,25.16
2023-05-14T02:59:02.722Z,25.18
2023-05-14T03:01:04.582Z,25.18
2023-05-14T03:03:06.267Z,25.18
2023-05-14T03:05:08.534Z,25.19
2023-05-14T03:07:10.151Z,25.19
2023-05-14T03:09:11.911Z,25.20
2023-05-14T03:11:13.387Z,25.20
2023-05-14T03:13:19.999Z,25.22
2023-05-14T03:15:21.464Z,25.22
2023-05-14T03:17:23.013Z,25.22
2023-05-14T03:19:24.498Z,25.21
2023-05-14T03:21:26.188Z,25.20
2023-05-14T03:23:27.847Z,25.20
2023-05-14T03:25:29.477Z,25.19
2023-05-14T03:27:30.908Z,25.20
2023-05-14T03:29:32.401Z,25.21
2023-05-14T03:31:34.146Z,25.21
2023-05-14T03:33:35.782Z,25.21
2023-05-14T03:35:37.183Z,25.22
2023-05-14T03:37:38.676Z,25.22
2023-05-14T03:39:40.110Z,25.22
2023-05-14T03:41:41.659Z,25.22
2023-05-14T03:43:43.075Z,25.22
2023-05-14T03:45:44.587Z,25.21
2023-05-14T03:47:46.041Z,25.21
2023-05-14T03:49:47.564Z,25.20
2023-05-14T03:51:49.095Z,25.20
2023-05-14T03:53:50.593Z,25.22
2023-05-14T03:55:52.087Z,25.22
2023-05-14T03:57:53.503Z,25.24
2023-05-14T03:59:54.918Z,25.22
2023-05-14T04:01:56.386Z,25.24
2023-05-14T04:03:58.102Z,25.23
2023-05-14T04:05:59.634Z,25.22
2023-05-14T04:08:01.574Z,25.23
2023-05-14T04:10:04.737Z,25.23
2023-05-14T04:12:06.732Z,25.22
2023-05-14T04:14:08.239Z,25.21
2023-05-14T04:16:09.839Z,25.20
2023-05-14T04:18:11.470Z,25.20
2023-05-14T04:20:13.007Z,25.21
2023-05-14T04:22:14.409Z,25.22
2023-05-14T04:24:16.874Z,25.22
2023-05-14T04:26:18.531Z,25.22
2023-05-14T04:28:19.925Z,25.22
2023-05-14T04:30:21.773Z,25.22
2023-05-14T04:32:23.347Z,25.24
2023-05-14T04:34:27.654Z,25.23
2023-05-14T04:36:29.122Z,25.24
2023-05-14T04:38:31.739Z,25.23
2023-05-14T04:40:33.241Z,25.23
2023-05-14T04:42:34.679Z,25.23
2023-05-14T04:44:36.619Z,25.23
2023-05-14T04:46:38.124Z,25.23
2023-05-14T04:48:39.545Z,25.24
2023-05-14T04:50:40.966Z,25.24
2023-05-14T04:52:42.431Z,25.24
2023-05-14T04:54:43.851Z,25.25
2023-05-14T04:56:45.601Z,25.24
2023-05-14T04:58:47.151Z,25.25
2023-05-14T05:00:48.837Z,25.23
2023-05-14T05:02:50.737Z,25.23
2023-05-14T05:04:52.147Z,25.23
2023-05-14T05:06:53.640Z,25.21
2023-05-14T05:08:55.188Z,25.22
2023-05-14T05:10:56.627Z,25.22
2023-05-14T05:12:58.046Z,25.22
2023-05-14T05:14:59.513Z,25.23
2023-05-14T05:17:00.976Z,25.23
2023-05-14T05:19:02.450Z,25.24
2023-05-14T05:21:03.896Z,25.22
2023-05-14T05:23:05.405Z,25.23
2023-05-14T05:25:08.062Z,25.22
2023-05-14T05:27:09.512Z,25.21
2023-05-14T05:29:10.969Z,25.20
2023-05-14T05:31:12.703Z,25.20
2023-05-14T05:33:14.209Z,25.19
2023-05-14T05:35:15.656Z,25.19
2023-05-14T05:37:17.133Z,25.20
2023-05-14T05:39:18.602Z,25.20
2023-05-14T05:41:20.099Z,25.19
2023-05-14T05:43:21.554Z,25.20
2023-05-14T05:45:23.084Z,25.20
2023-05-14T05:47:24.589Z,25.22
2023-05-14T05:49:26.126Z,25.20
2023-05-14T05:51:27.636Z,25.21
2023-05-14T05:53:29.123Z,25.20
2023-05-14T05:55:30.726Z,25.20
2023-05-14T05:57:32.359Z,25.19
2023-05-14T05:59:33.836Z,25.19
2023-05-14T06:01:35.364Z,25.20
2023-05-14T06:03:36.983Z,25.20
2023-05-14T06:05:38.493Z,25.20
2023-05-14T06:07:40.038Z,25.21
2023-05-14T06:09:41.516Z,25.22
2023-05-14T06:11:43.018Z,25.22
2023-05-14T06:13:44.720Z,25.21
2023-05-14T06:15:46.175Z,25.22
2023-05-14T06:17:48.034Z,25.22
2023-05-14T06:19:49.611Z,25.09
2023-05-14T06:21:51.035Z,25.19
2023-05-14T06:23:52.457Z,25.20
2023-05-14T06:25:54.012Z,25.21
2023-05-14T06:27:55.417Z,25.22
2023-05-14T06:29:56.975Z,25.22
2023-05-14T06:32:01.811Z,25.21
2023-05-14T06:34:03.420Z,25.22
2023-05-14T06:36:05.864Z,25.23
2023-05-14T06:38:07.368Z,25.22
2023-05-14T06:40:09.099Z,25.22
2023-05-14T06:42:10.622Z,25.21
2023-05-14T06:44:12.085Z,25.22
2023-05-14T06:46:13.534Z,25.20
2023-05-14T06:48:15.293Z,25.20
2023-05-14T06:50:16.932Z,25.20
2023-05-14T06:52:18.678Z,25.21
2023-05-14T06:54:20.606Z,25.22
2023-05-14T06:56:22.352Z,25.23
2023-05-14T06:58:23.740Z,25.20
2023-05-14T07:00:25.569Z,25.23
2023-05-14T07:02:27.478Z,25.22
2023-05-14T07:04:28.989Z,25.22
2023-05-14T07:06:30.833Z,25.22
2023-05-14T07:08:32.226Z,25.21
2023-05-14T07:10:33.836Z,25.13
2023-05-14T07:12:35.591Z,25.21
2023-05-14T07:14:37.096Z,25.21
2023-05-14T07:16:38.676Z,25.23
2023-05-14T07:18:40.384Z,25.24
2023-05-14T07:20:41.834Z,25.24
2023-05-14T07:22:43.228Z,25.24
2023-05-14T07:24:44.818Z,25.24
2023-05-14T07:26:46.251Z,25.24
2023-05-14T07:28:47.710Z,25.24
2023-05-14T07:30:49.164Z,25.24
2023-05-14T07:32:50.615Z,25.24
2023-05-14T07:34:52.296Z,25.23
2023-05-14T07:36:53.957Z,25.23
2023-05-14T07:38:55.586Z,25.23
2023-05-14T07:40:57.007Z,25.24
2023-05-14T07:42:58.431Z,25.24
2023-05-14T07:44:59.990Z,25.25
2023-05-14T07:47:01.518Z,25.24
2023-05-14T07:49:03.071Z,25.25
2023-05-14T07:51:04.464Z,25.25
2023-05-14T07:53:06.095Z,25.26
2023-05-14T07:55:07.616Z,25.25
2023-05-14T07:57:09.103Z,25.25
2023-05-14T07:59:10.632Z,25.25
2023-05-14T08:01:12.767Z,25.24
2023-05-14T08:03:14.413Z,25.24
2023-05-14T08:05:16.610Z,25.24
2023-05-14T08:07:18.052Z,25.24
2023-05-14T08:09:19.410Z,25.25
2023-05-14T08:11:22.396Z,25.25
2023-05-14T08:13:23.961Z,25.25
2023-05-14T08:15:27.560Z,25.26
2023-05-14T08:17:29.986Z,25.26
2023-05-14T08:19:31.460Z,25.26
2023-05-14T08:21:33.084Z,25.25
2023-05-14T08:23:34.688Z,25.24
2023-05-14T08:25:36.179Z,25.25
2023-05-14T08:27:37.644Z,25.25
2023-05-14T08:29:39.076Z,25.24
2023-05-14T08:31:40.539Z,25.25
2023-05-14T08:33:42.105Z,25.24
2023-05-14T08:35:43.739Z,25.26
2023-05-14T08:37:45.512Z,25.27
2023-05-14T08:39:46.998Z,25.27
2023-05-14T08:41:48.568Z,25.28
2023-05-14T08:43:52.833Z,25.28
2023-05-14T08:45:57.725Z,25.27
2023-05-14T08:47:59.525Z,25.27
2023-05-14T08:50:02.340Z,25.27
2023-05-14T08:52:04.135Z,25.27
2023-05-14T08:54:05.619Z,25.26
2023-05-14T08:56:08.481Z,25.27
2023-05-14T08:58:09.952Z,25.27
2023-05-14T09:00:12.023Z,25.26
2023-05-14T09:02:15.063Z,25.26
2023-05-14T09:04:19.522Z,25.28
2023-05-14T09:06:21.611Z,25.27
2023-05-14T09:08:23.154Z,25.27
2023-05-14T09:10:24.942Z,25.27
2023-05-14T09:12:26.572Z,25.27
2023-05-14T09:14:28.080Z,25.27
2023-05-14T09:16:29.665Z,25.27
2023-05-14T09:18:31.497Z,25.27
2023-05-14T09:20:33.198Z,25.27
2023-05-14T09:22:34.850Z,25.26
2023-05-14T09:24:36.388Z,25.27
2023-05-14T09:26:37.827Z,25.26
2023-05-14T09:28:43.412Z,25.27
2023-05-14T09:30:52.120Z,25.27
2023-05-14T09:32:54.584Z,25.26
2023-05-14T09:34:56.384Z,25.26
2023-05-14T09:36:58.969Z,25.27
2023-05-14T09:39:00.910Z,25.25
2023-05-14T09:41:02.562Z,25.24
2023-05-14T09:43:04.060Z,25.24
2023-05-14T09:45:06.853Z,25.23
2023-05-14T09:47:08.429Z,25.23
2023-05-14T09:49:09.987Z,25.23
2023-05-14T09:51:11.640Z,25.24
2023-05-14T09:53:13.735Z,25.24
2023-05-14T09:55:16.030Z,25.26
2023-05-14T09:57:17.505Z,25.25
2023-05-14T09:59:19.025Z,25.26
2023-05-14T10:01:21.933Z,25.27
2023-05-14T10:03:25.156Z,25.28
2023-05-14T10:05:27.295Z,25.28
2023-05-14T10:07:31.472Z,25.27
2023-05-14T10:09:32.961Z,25.26
2023-05-14T10:11:36.901Z,25.27
2023-05-14T10:13:40.508Z,25.27
2023-05-14T10:15:49.220Z,25.25
2023-05-14T10:17:55.588Z,25.26
2023-05-14T10:19:57.261Z,25.27
2023-05-14T10:22:04.983Z,25.26
2023-05-14T10:24:07.443Z,25.29
2023-05-14T10:26:09.130Z,25.28
2023-05-14T10:28:11.627Z,25.29
2023-05-14T10:30:13.497Z,25.30
2023-05-14T10:32:16.387Z,25.30
2023-05-14T10:34:33.427Z,25.28
2023-05-14T10:36:35.498Z,25.28
2023-05-14T10:38:37.438Z,25.29
2023-05-14T10:40:38.954Z,25.30
2023-05-14T10:42:42.460Z,25.31
2023-05-14T10:44:58.538Z,25.31
2023-05-14T10:47:00.290Z,25.33
2023-05-14T10:49:01.873Z,25.33
2023-05-14T10:51:03.459Z,25.33
2023-05-14T10:53:04.920Z,25.33
2023-05-14T10:55:10.282Z,25.33
2023-05-14T10:57:11.825Z,25.34
2023-05-14T10:59:13.652Z,25.35
2023-05-14T11:01:15.489Z,25.34
2023-05-14T11:03:18.241Z,25.35
2023-05-14T11:05:19.807Z,25.35
2023-05-14T11:07:24.128Z,25.36
2023-05-14T11:09:25.672Z,25.38
2023-05-14T11:11:27.233Z,25.38
2023-05-14T11:13:28.839Z,25.40
2023-05-14T11:15:31.017Z,25.31
2023-05-14T11:17:32.663Z,25.42
2023-05-14T11:19:34.109Z,25.40
2023-05-14T11:21:35.707Z,25.42
2023-05-14T11:23:37.313Z,25.42
2023-05-14T11:25:38.822Z,25.40
2023-05-14T11:27:40.807Z,25.42
2023-05-14T11:29:48.676Z,25.40
2023-05-14T11:31:51.317Z,25.40
2023-05-14T11:33:53.518Z,25.40
2023-05-14T11:35:55.194Z,25.42
2023-05-14T11:37:56.630Z,25.43
2023-05-14T11:39:59.649Z,25.45
2023-05-14T11:42:02.702Z,25.46
2023-05-14T11:44:04.604Z,25.47
2023-05-14T11:46:06.052Z,25.49
2023-05-14T11:48:15.038Z,25.50
2023-05-14T11:50:16.952Z,25.50
2023-05-14T11:52:22.064Z,25.51
2023-05-14T11:54:25.279Z,25.50
2023-05-14T11:56:26.716Z,25.51
2023-05-14T11:58:28.300Z,25.53
2023-05-14T12:00:31.268Z,25.55
2023-05-14T12:02:32.827Z,25.56
2023-05-14T12:04:34.437Z,25.57
2023-05-14T12:06:35.896Z,25.58
2023-05-14T12:08:37.711Z,25.59
2023-05-14T12:10:42.627Z,25.59
2023-05-14T12:12:46.050Z,25.61
2023-05-14T12:14:48.213Z,25.61
2023-05-14T12:16:51.076Z,25.62
2023-05-14T12:18:52.544Z,25.62
2023-05-14T12:20:54.082Z,25.62
2023-05-14T12:22:55.544Z,25.63
2023-05-14T12:24:57.908Z,25.65
2023-05-14T12:27:01.483Z,25.65
2023-05-14T12:29:03.632Z,25.66
2023-05-14T12:31:05.287Z,25.66
2023-05-14T12:33:07.126Z,25.66
2023-05-14T12:35:09.144Z,25.67
2023-05-14T12:37:10.588Z,25.68
2023-05-14T12:39:12.223Z,25.68
2023-05-14T12:41:13.687Z,25.68
2023-05-14T12:43:15.312Z,25.68
2023-05-14T12:45:16.787Z,25.68
2023-05-14T12:47:18.396Z,25.69
2023-05-14T12:49:20.006Z,25.71
2023-05-14T12:51:21.517Z,25.71
2023-05-14T12:53:23.098Z,25.72
2023-05-14T12:55:24.588Z,25.73
2023-05-14T12:57:27.744Z,25.74
2023-05-14T12:59:29.300Z,25.75
2023-05-14T13:01:30.839Z,25.75
2023-05-14T13:03:32.593Z,25.77
2023-05-14T13:05:34.198Z,25.79
2023-05-14T13:07:36.183Z,25.79
2023-05-14T13:09:37.783Z,25.81
2023-05-14T13:11:39.178Z,25.80
2023-05-14T13:13:41.032Z,25.81
2023-05-14T13:15:42.573Z,25.82
2023-05-14T13:17:44.293Z,25.84
2023-05-14T13:19:45.842Z,25.84
2023-05-14T13:21:47.318Z,25.86
2023-05-14T13:23:48.835Z,25.87
2023-05-14T13:25:50.741Z,25.87
2023-05-14T13:27:52.286Z,25.88
2023-05-14T13:29:53.728Z,25.89
2023-05-14T13:31:55.327Z,25.89
2023-05-14T13:33:58.131Z,25.89
2023-05-14T13:35:59.890Z,25.89
2023-05-14T13:38:01.371Z,25.91
2023-05-14T13:40:04.409Z,25.90
2023-05-14T13:42:06.066Z,25.93
2023-05-14T13:44:07.961Z,25.94
2023-05-14T13:46:09.662Z,25.95
2023-05-14T13:48:11.522Z,25.96
2023-05-14T13:50:14.057Z,25.98
2023-05-14T13:52:15.588Z,25.99
2023-05-14T13:54:17.088Z,26.01
2023-05-14T13:56:18.654Z,26.02
2023-05-14T13:58:20.158Z,26.00
2023-05-14T14:00:21.925Z,26.02
2023-05-14T14:02:23.422Z,26.01
2023-05-14T14:04:29.149Z,26.02
2023-05-14T14:06:32.015Z,26.02
2023-05-14T14:08:33.508Z,26.04
2023-05-14T14:10:36.445Z,26.07
2023-05-14T14:12:37.892Z,26.08
2023-05-14T14:14:39.318Z,26.09
2023-05-14T14:16:41.048Z,26.10
2023-05-14T14:18:43.260Z,26.10
2023-05-14T14:20:44.960Z,26.12
2023-05-14T14:22:46.542Z,26.11
2023-05-14T14:24:47.961Z,26.12
2023-05-14T14:26:49.467Z,26.11
2023-05-14T14:28:50.956Z,26.11
2023-05-14T14:30:52.563Z,26.13
2023-05-14T14:32:54.106Z,26.14
2023-05-14T14:34:55.651Z,26.15
2023-05-14T14:36:57.063Z,26.18
2023-05-14T14:38:58.814Z,26.18
2023-05-14T14:41:02.972Z,26.20
2023-05-14T14:43:04.368Z,26.22
2023-05-14T14:45:06.201Z,26.22
2023-05-14T14:47:07.654Z,26.23
2023-05-14T14:49:09.362Z,26.24
2023-05-14T14:51:10.851Z,26.24
2023-05-14T14:53:12.337Z,26.24
2023-05-14T14:55:13.810Z,26.25
2023-05-14T14:57:15.238Z,26.26
2023-05-14T14:59:17.194Z,26.26
2023-05-14T15:01:19.030Z,26.27
2023-05-14T15:03:21.359Z,26.28
2023-05-14T15:05:23.240Z,26.27
2023-05-14T15:07:24.812Z,26.29
2023-05-14T15:09:26.238Z,26.28
2023-05-14T15:11:28.906Z,26.29
2023-05-14T15:13:30.408Z,26.29
2023-05-14T15:15:41.039Z,26.29
2023-05-14T15:17:42.419Z,26.30
2023-05-14T15:19:43.887Z,26.29
2023-05-14T15:21:45.535Z,26.29
2023-05-14T15:23:46.995Z,26.28
2023-05-14T15:25:49.429Z,26.29
2023-05-14T15:27:52.830Z,26.30
2023-05-14T15:29:54.254Z,26.30
2023-05-14T15:31:55.869Z,26.32
2023-05-14T15:33:57.358Z,26.34
2023-05-14T15:35:58.884Z,26.34
2023-05-14T15:38:00.416Z,26.31
2023-05-14T15:40:01.933Z,26.33
2023-05-14T15:42:04.468Z,26.31
2023-05-14T15:44:06.197Z,26.30
2023-05-14T15:46:07.710Z,26.31
2023-05-14T15:48:09.279Z,26.31
2023-05-14T15:50:10.894Z,26.31
2023-05-14T15:52:12.565Z,26.31
2023-05-14T15:54:14.127Z,26.32
2023-05-14T15:56:16.060Z,26.34
2023-05-14T15:58:17.580Z,26.35
2023-05-14T16:00:19.549Z,26.34
2023-05-14T16:02:21.112Z,26.35
2023-05-14T16:04:22.590Z,26.34
2023-05-14T16:06:24.218Z,26.35
2023-05-14T16:08:25.676Z,26.35
2023-05-14T16:10:27.296Z,26.36
2023-05-14T16:12:28.916Z,26.35
2023-05-14T16:14:30.538Z,26.35
2023-05-14T16:16:32.149Z,26.34
2023-05-14T16:18:33.845Z,26.34
2023-05-14T16:20:35.279Z,26.35
2023-05-14T16:22:36.788Z,26.35
2023-05-14T16:24:38.278Z,26.36
2023-05-14T16:26:40.006Z,26.38
2023-05-14T16:28:42.761Z,26.37
2023-05-14T16:30:44.193Z,26.38
2023-05-14T16:32:49.309Z,26.38
2023-05-14T16:34:51.120Z,26.37
2023-05-14T16:36:52.716Z,26.38
2023-05-14T16:39:06.682Z,26.37
2023-05-14T16:41:12.214Z,26.37
2023-05-14T16:43:13.644Z,26.37
2023-05-14T16:45:15.260Z,26.38
2023-05-14T16:47:16.843Z,26.38
2023-05-14T16:49:22.254Z,26.38
2023-05-14T16:51:23.769Z,26.39
2023-05-14T16:53:25.404Z,26.39
2023-05-14T16:55:26.892Z,26.38
2023-05-14T16:57:29.153Z,26.39
2023-05-14T16:59:30.634Z,26.38
2023-05-14T17:01:32.239Z,26.37
2023-05-14T17:03:33.692Z,26.37
2023-05-14T17:05:35.359Z,26.38
2023-05-14T17:07:37.270Z,26.38
2023-05-14T17:09:39.019Z,26.39
2023-05-14T17:11:40.551Z,26.39
2023-05-14T17:13:42.260Z,26.40
2023-05-14T17:15:43.875Z,26.39
2023-05-14T17:17:45.331Z,26.39
2023-05-14T17:19:46.998Z,26.39
2023-05-14T17:21:48.422Z,26.41
2023-05-14T17:23:49.893Z,26.40
2023-05-14T17:25:51.385Z,26.39
2023-05-14T17:27:53.093Z,26.39
2023-05-14T17:29:54.599Z,26.39
2023-05-14T17:31:56.103Z,26.39
2023-05-14T17:33:57.673Z,26.38
2023-05-14T17:35:59.175Z,26.39
2023-05-14T17:38:00.822Z,26.40
2023-05-14T17:40:03.168Z,26.40
2023-05-14T17:42:04.847Z,26.40
2023-05-14T17:44:06.453Z,26.41
2023-05-14T17:46:08.168Z,26.40
2023-05-14T17:48:09.593Z,26.41
2023-05-14T17:50:11.352Z,26.39
2023-05-14T17:52:13.194Z,26.40
2023-05-14T17:54:14.774Z,26.39
2023-05-14T17:56:18.354Z,26.38
2023-05-14T17:58:19.958Z,26.38
2023-05-14T18:00:21.406Z,26.38
2023-05-14T18:02:22.823Z,26.38
2023-05-14T18:04:24.368Z,26.38
2023-05-14T18:06:26.057Z,26.38
2023-05-14T18:08:27.514Z,26.38
2023-05-14T18:10:29.656Z,26.39
2023-05-14T18:12:31.182Z,26.38
2023-05-14T18:14:32.622Z,26.39
2023-05-14T18:16:34.346Z,26.38
2023-05-14T18:18:36.058Z,26.38
2023-05-14T18:20:37.544Z,26.38
2023-05-14T18:22:39.033Z,26.37
2023-05-14T18:24:40.441Z,26.37
2023-05-14T18:26:41.930Z,26.36
2023-05-14T18:28:43.729Z,26.38
2023-05-14T18:30:45.577Z,26.37
2023-05-14T18:32:47.164Z,26.38
2023-05-14T18:34:48.783Z,26.40
2023-05-14T18:36:50.933Z,26.39
2023-05-14T18:38:52.396Z,26.39
2023-05-14T18:40:53.880Z,26.38
2023-05-14T18:42:56.671Z,26.38
2023-05-14T18:44:58.133Z,26.43
2023-05-14T18:46:59.608Z,26.52
2023-05-14T18:49:01.005Z,26.59
2023-05-14T18:51:02.595Z,26.66
2023-05-14T18:53:04.070Z,26.74
2023-05-14T18:55:05.990Z,26.74
2023-05-14T18:57:07.701Z,26.72
2023-05-14T18:59:09.688Z,26.69
2023-05-14T19:01:11.225Z,26.67
2023-05-14T19:03:12.968Z,26.66
2023-05-14T19:05:14.419Z,26.63
2023-05-14T19:07:15.842Z,26.62
2023-05-14T19:09:21.017Z,26.62
2023-05-14T19:11:22.674Z,26.59
2023-05-14T19:13:24.213Z,26.58
2023-05-14T19:15:26.071Z,26.57
2023-05-14T19:17:28.969Z,26.56
2023-05-14T19:19:30.735Z,26.53
2023-05-14T19:21:32.249Z,26.54
2023-05-14T19:23:33.691Z,26.54
2023-05-14T19:25:35.205Z,26.53
2023-05-14T19:27:37.602Z,26.52
2023-05-14T19:29:39.073Z,26.53
2023-05-14T19:31:40.650Z,26.53
2023-05-14T19:33:42.161Z,26.53
2023-05-14T19:35:43.768Z,26.51
2023-05-14T19:37:45.852Z,26.52
2023-05-14T19:39:47.286Z,26.51
2023-05-14T19:41:48.891Z,26.50
2023-05-14T19:43:50.378Z,26.50
2023-05-14T19:45:52.248Z,26.50
2023-05-14T19:47:54.081Z,26.48
2023-05-14T19:49:55.572Z,26.49
2023-05-14T19:51:57.032Z,26.49
2023-05-14T19:53:58.441Z,26.49
2023-05-14T19:56:00.777Z,26.51
2023-05-14T19:58:02.267Z,26.51
2023-05-14T20:00:04.594Z,26.52
2023-05-14T20:02:06.179Z,26.51
2023-05-14T20:04:07.695Z,26.50
2023-05-14T20:06:09.190Z,26.50
2023-05-14T20:08:11.715Z,26.48
2023-05-14T20:10:14.095Z,26.47
2023-05-14T20:12:16.705Z,26.47
2023-05-14T20:14:18.153Z,26.47
2023-05-14T20:16:19.714Z,26.46
2023-05-14T20:18:23.772Z,26.47
2023-05-14T20:20:25.655Z,26.47
2023-05-14T20:22:27.338Z,26.47
2023-05-14T20:24:28.800Z,26.47
2023-05-14T20:26:30.235Z,26.46
2023-05-14T20:28:31.766Z,26.46
2023-05-14T20:30:33.281Z,26.45
2023-05-14T20:32:34.775Z,26.46
2023-05-14T20:34:36.231Z,26.46
2023-05-14T20:36:37.688Z,26.45
2023-05-14T20:38:40.853Z,26.45
2023-05-14T20:40:42.342Z,26.45
2023-05-14T20:42:43.841Z,26.45
2023-05-14T20:44:45.510Z,26.46
2023-05-14T20:46:47.054Z,26.45
2023-05-14T20:48:48.753Z,26.46
2023-05-14T20:50:50.425Z,26.47
2023-05-14T20:52:51.862Z,26.47
2023-05-14T20:54:53.324Z,26.47
2023-05-14T20:56:54.740Z,26.46
2023-05-14T20:58:56.308Z,26.46
2023-05-14T21:00:58.644Z,26.46
2023-05-14T21:03:01.410Z,26.44
2023-05-14T21:05:03.140Z,26.45
2023-05-14T21:07:05.203Z,26.45
2023-05-14T21:09:06.672Z,26.45
2023-05-14T21:11:08.567Z,26.46
2023-05-14T21:13:10.163Z,26.46
2023-05-14T21:15:12.138Z,26.47
2023-05-14T21:17:13.687Z,26.46
2023-05-14T21:19:15.587Z,26.46
2023-05-14T21:21:17.176Z,26.46
2023-05-14T21:23:19.808Z,26.47
2023-05-14T21:25:21.375Z,26.46
2023-05-14T21:27:23.071Z,26.46
2023-05-14T21:29:24.611Z,26.45
2023-05-14T21:31:26.102Z,26.46
2023-05-14T21:33:27.672Z,26.46
2023-05-14T21:35:29.347Z,26.46
2023-05-14T21:37:31.082Z,26.46
2023-05-14T21:39:32.612Z,26.48
2023-05-14T21:41:33.994Z,26.47
2023-05-14T21:43:35.580Z,26.47
2023-05-14T21:45:37.192Z,26.49
2023-05-14T21:47:38.741Z,26.47
2023-05-14T21:49:40.276Z,26.47
2023-05-14T21:51:42.802Z,26.47
2023-05-14T21:53:44.328Z,26.47
2023-05-14T21:55:46.003Z,26.46
2023-05-14T21:57:47.440Z,26.47
2023-05-14T21:59:48.836Z,26.48
2023-05-14T22:02:06.068Z,26.48
2023-05-14T22:04:08.290Z,26.48
2023-05-14T22:06:10.199Z,26.49
2023-05-14T22:08:11.726Z,26.47
2023-05-14T22:10:13.920Z,26.49
2023-05-14T22:12:15.462Z,26.47
2023-05-14T22:14:17.238Z,26.47
2023-05-14T22:16:18.777Z,26.46
2023-05-14T22:18:20.359Z,26.46
2023-05-14T22:20:21.794Z,26.46
2023-05-14T22:22:23.286Z,26.46
2023-05-14T22:24:24.866Z,26.47
2023-05-14T22:26:26.354Z,26.48
2023-05-14T22:28:27.825Z,26.47
2023-05-14T22:30:29.250Z,26.47
2023-05-14T22:32:30.678Z,26.47
2023-05-14T22:34:32.432Z,26.48
2023-05-14T22:36:33.883Z,26.47
2023-05-14T22:38:35.448Z,26.48
2023-05-14T22:40:36.887Z,26.48
2023-05-14T22:42:38.293Z,26.46
2023-05-14T22:44:39.783Z,26.46
2023-05-14T22:46:41.365Z,26.45
2023-05-14T22:48:42.804Z,26.44
2023-05-14T22:50:44.301Z,26.45
2023-05-14T22:52:45.706Z,26.45
2023-05-14T22:54:49.408Z,26.46
2023-05-14T22:56:51.470Z,26.45
2023-05-14T22:58:52.929Z,26.45
2023-05-14T23:00:54.312Z,26.46
2023-05-14T23:02:55.818Z,26.45
2023-05-14T23:04:57.280Z,26.46
2023-05-14T23:06:58.858Z,26.45
2023-05-14T23:09:00.266Z,26.44
2023-05-14T23:11:01.702Z,26.43
2023-05-14T23:13:03.869Z,26.43
2023-05-14T23:15:05.681Z,26.43
2023-05-14T23:17:07.290Z,26.43
2023-05-14T23:19:09.204Z,26.43
2023-05-14T23:21:11.722Z,26.45
2023-05-14T23:23:13.139Z,26.45
2023-05-14T23:25:14.579Z,26.44
2023-05-14T23:27:16.044Z,26.45
2023-05-14T23:29:17.495Z,26.45
2023-05-14T23:31:19.178Z,26.45
2023-05-14T23:33:20.615Z,26.43
2023-05-14T23:35:22.211Z,26.43
2023-05-14T23:37:23.887Z,26.43
2023-05-14T23:39:25.390Z,26.42
2023-05-14T23:41:26.792Z,26.40
2023-05-14T23:43:28.280Z,26.40
2023-05-14T23:45:30.666Z,26.40
2023-05-14T23:47:32.347Z,26.41
2023-05-14T23:49:34.911Z,26.42
2023-05-14T23:51:37.688Z,26.41
2023-05-14T23:53:39.171Z,26.42
2023-05-14T23:55:41.080Z,26.42
2023-05-14T23:57:42.558Z,26.41
2023-05-14T23:59:43.953Z,26.42
